Tiempo atmosférico en la estación meteorológica de La Molina, Girona (1704 m.)



Fecha
DESCASC
Temp. máxima en grados centígrados (hora)
DESCASC
Temp. mínima en grados centígrados (hora)
DESCASC
Temp. media en grados centígrados
DESCASC
Racha de viento máxima en m/sg (hora)
DESCASC
Velocidad máxima media en intervalos de 10 minutos(hora)
DESCASC
Precipitaciones diarias en mm
DESCASC
Precipitaciones de 00:00 a 06:00 en mm
DESCASC
Precipitaciones de 06:00 a 12:00 en mm
DESCASC
Precipitaciones de 12:00 a 18:00 en mm
DESCASC
Precipitaciones de 18:00 a 24:00 en mm
DESCASC
11-01-2020 6.4 (15:50) -3.1 (-00:0) 1.7 7.78 (09:50) 4.17 (10:50) 0.4 0.2 0.2 0 0
25-01-2020 2.4 (16:20) -2.7 (-00:0) -0.1 6.94 (07:00) 3.33 (06:30) 0 0 0 0 0
24-01-2020 3.5 (13:50) -3.5 (-00:0) 0 5.28 (13:30) 3.06 (07:50) 0 0 0 0 0
20-01-2020 -3.2 (15:50) -7.1 (-00:0) -5.1 13.61 (01:30) 4.72 (04:20) 0.4 0 0.4 0 0
19-01-2020 -0.6 (06:00) -6.6 (-00:0) -3.6 15 (14:50) 7.22 (14:50) 0 0 0 0 0
18-01-2020 4.8 (14:50) -4.1 (-00:0) 0.4 7.22 (14:40) 3.33 (14:40) 0 0 0 0 0
16-01-2020 7.2 (16:10) -1 (-00:0) 3.1 11.11 (23:20) 6.11 (02:50) 0 0 0 0 0
15-01-2020 6 (14:10) -0.7 (-00:0) 2.7 6.11 (20:50) 3.33 (20:50) 0 0 0 0 0
14-01-2020 9.2 (14:50) -1.3 (-00:0) 3.9 4.72 (03:00) 2.78 (01:00) 0 0 0 0 0
13-01-2020 9.3 (14:20) -1.9 (-00:0) 3.7 4.72 (23:20) 2.5 (03:10) 0 0 0 0 0
12-01-2020 10.6 (14:50) -1.6 (-00:0) 4.5 7.22 (13:00) 3.61 (13:00) 0.2 0.2 0 0 0
27-12-2019 9.7 (15:20) 1.5 (00:00) 5.6 10.56 (17:00) 4.17 (18:40) 0 0 0 0 0
10-01-2020 3.3 (15:00) -3.1 (-00:0) 0.1 8.33 (14:50) 4.17 (15:30) 1.4 0.8 0.6 0 0
08-01-2020 11 (14:50) 0.9 (00:00) 5.9 6.67 (12:30) 2.78 (04:40) 0 0 0 0 0
28-12-2019 10.6 (15:00) 2.3 (00:00) 6.5 6.11 (10:40) 2.78 (10:40) 0 0 0 0 0
29-12-2019 12.5 (15:40) 3.1 (00:00) 7.8 5.83 (15:50) 2.5 (03:10) 0 0 0 0 0
30-12-2019 10.5 (14:30) 3 (00:00) 6.8 6.67 (03:40) 3.33 (02:30) 0 0 0 0 0
31-12-2019 10.5 (15:20) 3.3 (00:00) 6.9 4.44 (07:20) 2.5 (07:20) 0 0 0 0 0
01-01-2020 9.8 (15:00) 2.5 (00:00) 6.2 3.89 (04:10) 2.78 (04:20) 0 0 0 0 0
02-01-2020 9 (15:10) 1.4 (00:00) 5.2 3.33 (00:40) 2.5 (04:40) 0 0 0 0 0
03-01-2020 8.9 (14:30) 0.3 (00:00) 4.6 5.28 (23:40) 2.5 (19:00) 0 0 0 0 0
04-01-2020 8.3 (14:30) -1.7 (-00:0) 3.3 5.56 (14:20) 3.33 (04:40) 0 0 0 0 0
05-01-2020 11.4 (15:10) 0.1 (00:00) 5.7 12.22 (11:50) 5.56 (11:20) 0 0 0 0 0
06-01-2020 9.1 (15:20) 2 (00:00) 5.6 3.33 (02:40) 2.22 (19:40) 0 0 0 0 0
07-01-2020 11.7 (15:10) 2.2 (00:00) 6.9 5 (16:40) 2.5 (16:40) 0 0 0 0 0
09-01-2020 7.5 (14:30) -0.3 (00:00) 3.6 5.28 (20:00) 3.06 (20:00) 0 0 0 0 0
17-01-2020 6.2 (12:20) -3.6 (-00:0) 1.3 13.61 (01:30) 6.67 (05:40) 1.6 0 0 1.6 0
23-01-2020 2.9 (02:10) -2.3 (-00:0) 0.3 13.89 (09:20) 6.94 (14:00) 45.6 23.4 20.4 1.8 0
21-01-2020 0 (22:20) -4 (-00:0) -2 17.22 (14:30) 8.33 (13:20) 14.8 1.6 3.6 3.8 5.8
22-01-2020 2.8 (20:10) -0.1 (00:00) 1.3 -- (--) -- (--) 56 16.8 3.4 22.4 13.4

Gráficas

Temp. máximas Temp. mínimas Temp. medias Precipitaciones Rachas de viento máximas Velocidades máximas media en intervalos de 10 minutos

Datos horarios

Fecha y hora oficial Temperatura (ºC) Velocidad del viento (km/h) Dirección del viento Racha (km/h) Dirección de racha Precipitación (mm) Presión (hPa) Tendencia (hPa) Humedad (%)
2020-01-25 23:00:00 0.3 5 Este 12 Nordeste 0 829.1 0.2 88
2020-01-25 22:00:00 0.2 3 Sudeste 10 Sur 0 829.2 0.4 91
2020-01-25 21:00:00 0.2 3 Nordeste 11 Sur 0 829.2 0.8 90
2020-01-25 20:00:00 -0.1 3 Sudeste 8 Sur 0 828.9 0.5 93
2020-01-25 19:00:00 -0.2 3 Sudeste 5 Nordeste 0 828.8 0.2 95
2020-01-25 18:00:00 0.4 2 Este 7 Norte 0 828.4 -0.5 93
2020-01-25 17:00:00 1.6 4 Noroeste 12 Sudoeste 0 828.4 -0.9 88
2020-01-25 16:00:00 1.9 0 Calma 21 Sur 0 828.6 -1.3 89
2020-01-25 15:00:00 1.7 8 Sudoeste 22 Sudoeste 0 828.9 -1.9 89
2020-01-25 14:00:00 1.5 4 Este 17 Nordeste 0 829.3 -1.4 88
2020-01-25 13:00:00 1.1 12 Nordeste 22 Nordeste 0 829.9 -0.5 87
2020-01-25 12:00:00 1.2 5 Nordeste 16 Este 0 830.8 0.7 82
2020-01-25 11:00:00 1.1 -- -- 17 Nordeste 0 830.7 0.6 84
2020-01-25 10:00:00 1.2 5 Este 20 Este 0 830.4 0.5 71
2020-01-25 09:00:00 0.5 3 Sudoeste 11 Este 0 830.1 0.1 78
2020-01-25 08:00:00 0.3 4 Sudeste 14 Sur 0 830.1 0.1 85
2020-01-25 07:00:00 1.1 6 Sudeste 25 Sudeste 0 829.9 -0.3 81
2020-01-25 06:00:00 0.9 11 Sudeste 15 Sudeste 0 830 -0.8 80
2020-01-25 05:00:00 -0.2 6 Sur 13 Sudoeste 0 830 -0.9 83
2020-01-25 04:00:00 -1.1 5 Sudeste 13 Sudeste 0 830.2 -0.8 80
2020-01-25 03:00:00 -1.4 7 Sudeste 12 Sudeste 0 830.8 -0.4 83
2020-01-25 02:00:00 -1.9 7 Sudeste 11 Sudeste 0 830.9 -0.6 82
2020-01-25 01:00:00 -2.5 6 Sudeste 12 Sudeste 0 831 -0.4 86
2020-01-25 00:00:00 -2.6 6 Sudeste 11 Sudeste 0 831.2 0.1 85
2020-01-24 23:00:00 -2.4 5 Sudeste 10 Este 0 831.5 0.5 84
2020-01-24 22:00:00 -2.1 6 Sudeste 12 Sudeste 0 831.4 0.7 83
2020-01-24 21:00:00 -2.1 8 Sudeste 12 Este 0 831.1 0.7 82
2020-01-24 20:00:00 -2 8 Sudeste 12 Sudeste 0 831 0.6 81
2020-01-24 19:00:00 -2.2 5 Sudeste 12 Sudeste 0 830.7 0.3 86
2020-01-24 18:00:00 -1.5 6 Este 11 Sudeste 0 830.4 0.1 81
2020-01-24 17:00:00 -0.7 6 Sudeste 12 Sudeste 0 830.4 -0.1 82
2020-01-24 16:00:00 1.6 4 Sur 11 Sudeste 0 830.4 -0.5 73
2020-01-24 15:00:00 3.2 4 Este 17 Norte 0 830.3 -1.2 63
2020-01-24 14:00:00 3.2 7 Norte 19 Noroeste 0 830.5 -0.9 62
2020-01-24 13:00:00 2.1 5 Sur 10 Este 0 830.9 -0.5 68
2020-01-24 12:00:00 1.7 3 Sudeste 13 Norte 0 831.5 0.3 73
2020-01-24 11:00:00 0.7 5 Norte 18 Noroeste 0 831.4 0.3 73
2020-01-24 10:00:00 -2.2 6 Sur 11 Sudeste 0 831.4 0.5 88
2020-01-24 09:00:00 -1.7 8 Nordeste 17 Norte 0 831.2 0.1 80
2020-01-24 08:00:00 -1.8 5 Sudoeste 18 Noroeste 0 831.1 -0.2 83
2020-01-24 07:00:00 -3.2 4 Sur 11 Sudeste 0 830.9 -0.8 90
2020-01-24 06:00:00 -2.8 6 Sudeste 13 Sudeste 0 831.1 -0.9 91
2020-01-24 05:00:00 -2.4 6 Sudeste 12 Sudeste 0 831.3 -1 92
2020-01-24 04:00:00 -2.3 5 Sudeste 12 Este 0 831.7 -1.2 88
2020-01-24 03:00:00 -2.3 4 Sudeste 12 Sudeste 0 832 -0.8 90
2020-01-24 02:00:00 -2 8 Sudeste 12 Sudeste 0 832.3 -0.4 93
2020-01-24 01:00:00 -2.2 4 Este 9 Este 0 832.9 0.4 96
2020-01-24 00:00:00 -2.3 4 Sudeste 9 Sur 0 832.8 0.7 93
2020-01-23 23:00:00 -0.9 6 Sur 11 Sudeste 0 832.7 1 84
2020-01-23 22:00:00 -1.1 4 Sur 11 Sudeste 0 832.5 1.1 87
2020-01-23 21:00:00 -1.5 8 Sudeste 12 Sudeste 0 832.1 1.2 92
2020-01-23 20:00:00 -1.3 5 Sudeste 8 Sur 0 831.7 1 92
2020-01-23 19:00:00 -1 5 Sudeste 8 Sur 0 831.4 0.9 94
2020-01-23 18:00:00 0 2 Nordeste 20 Sur 0 830.9 0.8 89
2020-01-23 17:00:00 1.1 10 Sudoeste 23 Sudoeste 0 830.7 0.8 81
2020-01-23 16:00:00 1.3 12 Sudoeste 32 Sudoeste 0.2 830.5 0.3 89
2020-01-23 15:00:00 1.6 18 Sudeste 42 Sudeste 1.4 830.1 -0.7 88
2020-01-23 14:00:00 1.3 25 Sudeste 46 Sudeste 0.2 829.9 -0.9 92
2020-01-23 13:00:00 1.3 22 Sudeste 46 Sudeste 0 830.2 -0.5 93
2020-01-23 12:00:00 1.1 18 Sudeste 37 Sudeste 0.6 830.8 1 97
2020-01-23 11:00:00 0.8 4 Sur 18 Sudeste 2.6 830.8 1.2 100
2020-01-23 10:00:00 0.2 6 Sudeste 50 Sudeste 5.2 830.7 1.5 99
2020-01-23 09:00:00 1.5 15 Sudeste 47 Sudeste 3.6 829.8 0.7 95
2020-01-23 08:00:00 1.4 14 Sudeste 34 Sur 2.6 829.6 0.1 97
2020-01-23 07:00:00 1.7 12 Sur 43 Sudeste 5.8 829.2 -0.7 96
2020-01-23 06:00:00 1.4 15 Sudeste 41 Sudeste 2.8 829.1 -1.3 97
2020-01-23 05:00:00 1.8 18 Sudeste 37 Sudeste 6.4 829.5 -0.9 96
2020-01-23 04:00:00 2.2 21 Sudeste 45 Sudeste 5.6 829.9 -1.5 95
2020-01-23 03:00:00 2.1 12 Sudeste 30 Sudeste 4.2 830.4 -1.4 97
2020-01-23 02:00:00 2.7 17 Sudeste 39 Sudeste 1.6 830.4 -0.8 97
2020-01-23 01:00:00 2.2 16 Sudeste 50 Sudeste 2.8 831.4 0.4 97
2020-01-23 00:00:00 2.1 23 Sudeste 57 Sudeste 3.4 831.8 0.6 96
2020-01-22 23:00:00 2.3 18 Sudeste 43 Sudeste 4.4 831.2 0.1 99
2020-01-22 22:00:00 2.5 22 Sudeste 44 Sudeste 3.4 831 0.4 100
2020-01-22 21:00:00 2.6 19 Sudeste 53 Sudeste 0.8 831.2 0.9 100
2020-01-22 20:00:00 2.7 25 Sudeste 50 Sudeste 0.6 831.1 0.6 100
2020-01-22 19:00:00 2.5 22 Sudeste 44 Sudeste 0.8 830.6 -0.2 100
2020-01-22 18:00:00 2.3 19 Sudeste 37 Sudeste 2.6 830.3 -0.6 100
2020-01-22 17:00:00 2.1 16 Sudeste 46 Sudeste 2.8 830.5 -1.1 100
2020-01-22 16:00:00 2.1 16 Sudeste 42 Sudeste 1.6 830.8 -1.4 100
2020-01-22 15:00:00 1.6 14 Sudeste 39 Sudeste 3.8 830.9 -2 100
2020-01-22 14:00:00 1.3 17 Sudeste 40 Sudeste 3.8 831.6 -1.5 100
2020-01-22 13:00:00 0.2 8 Sur 28 Este 7.8 832.2 -1 100
2020-01-22 12:00:00 0.1 -- -- -- -- 0.8 832.9 0.2 100
2020-01-22 11:00:00 0 -- -- -- -- 0.2 833.1 0.7 100
2020-01-22 10:00:00 0 -- -- -- -- 0.2 833.2 1.1 100
2020-01-22 09:00:00 -0.1 -- -- -- -- 0 832.7 0.5 100
2020-01-22 08:00:00 0 -- -- -- -- 0 832.4 0.1 100
2020-01-22 07:00:00 -0.1 7 Nordeste 10 Nordeste 2.2 832.1 -0.2 100
2020-01-22 06:00:00 -0.1 6 Sur 13 Norte 2.8 832.2 -0.4 100
2020-01-22 05:00:00 0 3 Sur 17 Sur 2.8 832.3 -0.7 100
2020-01-22 04:00:00 0 7 Sur 34 Sudeste 3.8 832.3 -1.2 100
2020-01-22 03:00:00 0 17 Sudeste 36 Sur 3.2 832.6 -1.2 100
2020-01-22 02:00:00 0 17 Sur 39 Sur 2.6 833 -0.7 100
2020-01-22 01:00:00 0 16 Sudeste 50 Sudeste 1.6 833.5 -0.4 100
2020-01-22 00:00:00 0 21 Sudeste 44 Sudeste 1.4 833.8 -0.1 100
2020-01-21 23:00:00 0 11 Oeste 40 Sudoeste 1 833.7 -1 100
2020-01-21 22:00:00 -0.1 13 Sur 31 Sur 1 833.9 -0.8 100
2020-01-21 21:00:00 -0.2 9 Oeste 24 Sur 0.8 833.9 -1 100
2020-01-21 20:00:00 -0.3 7 Sudoeste 32 Sur 1 834.7 -0.1 100
2020-01-21 19:00:00 -0.4 6 Sudoeste 36 Sudeste 0.6 834.7 -0.4 100
2020-01-21 18:00:00 -0.3 12 Sur 36 Sudeste 0.6 834.9 -0.3 100
2020-01-21 17:00:00 -0.4 17 Sudeste 42 Sudeste 0.4 834.8 -0.5 100
2020-01-21 16:00:00 -0.3 24 Sudeste 51 Sudeste 0.8 835.1 -0.6 100
2020-01-21 15:00:00 -0.2 27 Sudeste 62 Sur 0.6 835.2 -0.9 100
2020-01-21 14:00:00 -0.3 26 Sudeste 60 Sudeste 0.8 835.3 -1 100
2020-01-21 13:00:00 -0.4 21 Sudeste 48 Sudeste 0.6 835.7 -0.2 100
2020-01-21 12:00:00 -0.2 15 Sur 49 Sudeste 0.6 836.1 0.6 100
2020-01-21 11:00:00 -0.5 26 Sudeste 49 Sur 0.6 836.3 1 100
2020-01-21 10:00:00 -0.4 24 Sur 54 Sudeste 0.6 835.9 0.5 96
2020-01-21 09:00:00 -0.7 17 Sudeste 55 Sudeste 0.2 835.5 0.1 95
2020-01-21 08:00:00 -0.8 12 Sudeste 33 Sudeste 0.4 835.3 -0.3 94
2020-01-21 07:00:00 -3.3 4 Oeste 27 Noroeste 1.2 835.4 -0.4 94
2020-01-21 06:00:00 -2.1 8 Sudeste 21 Sur 1.2 835.4 -0.7 93
2020-01-21 05:00:00 -2.7 3 Nordeste 21 Sudeste 0.2 835.6 -0.5 88
2020-01-21 04:00:00 -1.6 10 Sudeste 28 Sudeste 0.2 835.8 -0.5 90
2020-01-21 03:00:00 -0.7 15 Sudeste 40 Sudeste 0 836.1 -0.3 78
2020-01-21 02:00:00 -1.1 4 Sudeste 28 Sudeste 0 836.1 -0.5 75
2020-01-21 01:00:00 -1.1 17 Sur 40 Sur 0 836.3 -0.1 76
2020-01-21 00:00:00 -4 4 Sur 10 Sudoeste 0 836.4 -0.2 90
2020-01-20 23:00:00 -4.5 5 Este 13 Este 0 836.6 -0.4 91
2020-01-20 22:00:00 -3.9 6 Noroeste 14 Sudeste 0 836.4 -0.2 89
2020-01-20 21:00:00 -4.8 4 Sudeste 16 Noroeste 0 836.6 0.5 93
2020-01-20 20:00:00 -4.8 4 Sudoeste 12 Noroeste 0 837 1.2 91
2020-01-20 19:00:00 -4.7 4 Noroeste 11 Noroeste 0 836.6 1 92
2020-01-20 18:00:00 -4.2 3 Sudoeste 18 Oeste 0 836.1 0.7 89
2020-01-20 17:00:00 -4.1 8 Noroeste 24 Noroeste 0 835.8 0.3 85
2020-01-20 16:00:00 -3.5 8 Oeste 19 Noroeste 0 835.6 0 81
2020-01-20 15:00:00 -3.7 4 Norte 10 Nordeste 0 835.4 -0.5 88
2020-01-20 14:00:00 -3.5 3 Norte 10 Noroeste 0 835.5 -0.5 87
2020-01-20 13:00:00 -4 5 Norte 17 Noroeste 0 835.6 0.1 88
2020-01-20 12:00:00 -4.8 7 Noroeste 15 Sudoeste 0.2 835.9 1.1 87
2020-01-20 11:00:00 -5.5 5 Oeste 21 Oeste 0 836 1.6 88
2020-01-20 10:00:00 -6 8 Oeste 14 Oeste 0 835.5 1.7 87
2020-01-20 09:00:00 -6.5 3 Sudoeste 12 Noroeste 0 834.8 0.9 83
2020-01-20 08:00:00 -6.6 6 Sudoeste 15 Sudoeste 0.2 834.4 0.7 76
2020-01-20 07:00:00 -6.8 8 Sudoeste 18 Oeste 0 833.8 -0.5 76
2020-01-20 06:00:00 -7 8 Oeste 18 Oeste 0 833.9 -0.6 79
2020-01-20 05:00:00 -6.6 6 Oeste 37 Norte 0 833.7 -0.7 73
2020-01-20 04:00:00 -6.3 9 Oeste 42 Norte 0 834.3 -0.2 65
2020-01-20 03:00:00 -6.1 10 Sur 48 Sudoeste 0 834.5 -0.3 59
2020-01-20 02:00:00 -5.6 13 Sur 49 Noroeste 0 834.4 -0.2 58
2020-01-20 01:00:00 -5.9 9 Sudoeste 35 Oeste 0 834.5 -0.3 58
2020-01-20 00:00:00 -6.2 7 Sur 22 Nordeste 0 834.8 0.3 67
2020-01-19 23:00:00 -6.4 7 Sur 35 Noroeste 0 834.6 0.6 65
2020-01-19 22:00:00 -6.4 12 Noroeste 34 Norte 0 834.8 1.1 65
2020-01-19 21:00:00 -6.5 12 Noroeste 32 Norte 0 834.5 1.2 69
2020-01-19 20:00:00 -6.2 15 Noroeste 48 Norte 0 834 1 72
2020-01-19 19:00:00 -6.1 12 Noroeste 36 Norte 0 833.7 1.4 71
2020-01-19 18:00:00 -5.3 13 Noroeste 37 Norte 0 833.3 1.2 66
2020-01-19 17:00:00 -4 16 Norte 49 Norte 0 833 0.7 70
2020-01-19 16:00:00 -2.1 25 Norte 51 Norte 0 832.3 -0.3 46
2020-01-19 15:00:00 -2.1 22 Norte 54 Norte 0 832.1 -0.6 44
2020-01-19 14:00:00 -2 18 Norte 46 Norte 0 832.3 -0.1 55
2020-01-19 13:00:00 -2.2 19 Norte 47 Norte 0 832.6 0.9 59
2020-01-19 12:00:00 -2.1 17 Norte 48 Norte 0 832.7 2.1 63
2020-01-19 11:00:00 -2.4 16 Norte 45 Norte 0 832.4 2.4 70
2020-01-19 10:00:00 -3.3 16 Norte 40 Noroeste 0 831.7 2.1 75
2020-01-19 09:00:00 -2.2 9 Norte 39 Norte 0 830.6 1.6 60
2020-01-19 08:00:00 -1.9 5 Noroeste 31 Noroeste 0 830 1.6 68
2020-01-19 07:00:00 -1.4 10 Norte 30 Norte 0 829.6 1 80
2020-01-19 06:00:00 -0.7 10 Oeste 28 Oeste 0 829 0.1 73
2020-01-19 05:00:00 -1.8 5 Sur 8 Sur 0 828.4 -0.3 76
2020-01-19 04:00:00 -1.6 2 Noroeste 8 Sur 0 828.6 -0.6 76
2020-01-19 03:00:00 -1.6 4 Sudeste 7 Este 0 828.9 -0.6 77
2020-01-19 02:00:00 -1.6 3 Este 10 Sudeste 0 828.7 -1 73
2020-01-19 01:00:00 -1.7 6 Sudeste 13 Sudeste 0 829.2 -0.9 77
2020-01-19 00:00:00 -1.3 5 Sudeste 10 Sudeste 0 829.5 -1 65
2020-01-18 23:00:00 -1 3 Sudeste 10 Sudeste 0 829.7 -0.7 69
2020-01-18 22:00:00 -1.2 2 Sudeste 9 Sudeste 0 830.1 -0.6 69
2020-01-18 21:00:00 -2.1 4 Sudeste 8 Sudeste 0 830.5 -0.6 71
2020-01-18 20:00:00 0.1 5 Este 15 Sudeste 0 830.4 -1 59
2020-01-18 19:00:00 1 3 Sur 16 Sur 0 830.7 -1.5 57
2020-01-18 18:00:00 0.4 3 Sudeste 19 Sur 0 831.1 -1.5 56
2020-01-18 17:00:00 0.6 7 Sudeste 12 Sudoeste 0 831.4 -2.3 48
2020-01-18 16:00:00 2.8 6 Sudeste 12 Este 0 832.2 -2.8 54
2020-01-18 15:00:00 4.7 6 Norte 26 Noroeste 0 832.6 -3.1 43
2020-01-18 14:00:00 3.1 3 Noroeste 10 Noroeste 0 833.7 -2.4 48
2020-01-18 13:00:00 2.1 5 Norte 10 Noroeste 0 835 -1.3 44
2020-01-18 12:00:00 2.4 4 Este 10 Sudeste 0 835.7 -1.2 45
2020-01-18 11:00:00 -0.3 0 Calma 13 Sudeste 0 836.1 -0.6 54
2020-01-18 10:00:00 -1.2 4 Sudeste 12 Sudeste 0 836.3 0 50
2020-01-18 09:00:00 -2 4 Nordeste 12 Sudeste 0 836.9 0.5 53
2020-01-18 08:00:00 -2.5 3 Este 9 Sudeste 0 836.7 0 53
2020-01-18 07:00:00 -2.7 6 Sudeste 9 Sudeste 0 836.3 -0.6 82
2020-01-18 06:00:00 -3.9 7 Sudeste 10 Sudeste 0 836.4 -0.6 80
2020-01-18 05:00:00 -3.6 6 Sudeste 12 Sudeste 0 836.7 -0.3 83
2020-01-18 04:00:00 -4.1 8 Sudeste 11 Sudeste 0 836.9 -0.6 80
2020-01-18 03:00:00 -3 7 Sur 17 Sur 0 837 -0.5 66
2020-01-18 02:00:00 -2.7 11 Sur 20 Oeste 0 837 -0.8 59
2020-01-18 01:00:00 -2.9 9 Sudoeste 23 Sudoeste 0 837.5 0 67
2020-01-18 00:00:00 -2.7 13 Sudoeste 24 Sudoeste 0 837.5 0.2 72
2020-01-17 23:00:00 -2.6 10 Sudoeste 19 Sudoeste 0 837.8 1.2 69
2020-01-17 22:00:00 -2.5 5 Sudeste 19 Sur 0 837.5 1.8 69
2020-01-17 21:00:00 -3.1 6 Este 15 Nordeste 0 837.3 2.2 74
2020-01-17 20:00:00 -2.8 5 Este 15 Sudeste 0 836.6 2 74
2020-01-17 19:00:00 -2.7 6 Sudeste 9 Sudeste 0 835.7 1.9 81
2020-01-17 18:00:00 -1.7 4 Sur 23 Noroeste 0 835.1 2.3 74
2020-01-17 17:00:00 -0.6 8 Sudoeste 31 Noroeste 1.6 834.6 1.2 79
2020-01-17 16:00:00 1.9 11 Norte 32 Noroeste 0 833.8 -0.4 66
2020-01-17 15:00:00 4.8 13 Sudoeste 27 Sudoeste 0 832.8 -1.7 51
2020-01-17 14:00:00 4.4 12 Oeste 31 Sudoeste 0 833.4 -1.5 60
2020-01-17 13:00:00 4.7 14 Oeste 32 Sudoeste 0 834.2 -0.1 56
2020-01-17 12:00:00 5.5 10 Sudoeste 33 Oeste 0 834.5 0.2 44
2020-01-17 11:00:00 2.7 4 Este 10 Este 0 834.9 0.6 81
2020-01-17 10:00:00 -0.6 4 Sudeste 10 Sudeste 0 834.3 0.4 92
2020-01-17 09:00:00 -0.4 4 Sudeste 12 Sudeste 0 834.3 0.3 88
2020-01-17 08:00:00 0.6 9 Sudeste 19 Sudeste 0 834.3 0.1 85
2020-01-17 07:00:00 1 4 Este 13 Noroeste 0 833.9 -0.7 85
2020-01-17 06:00:00 2.6 15 Oeste 47 Oeste 0 834 -1 73
2020-01-17 05:00:00 2.9 17 Oeste 45 Noroeste 0 834.2 -0.8 75
2020-01-17 04:00:00 3 15 Noroeste 46 Oeste 0 834.6 -0.7 74
2020-01-17 03:00:00 3.5 10 Oeste 41 Noroeste 0 835 -0.5 66
2020-01-17 02:00:00 3.7 12 Oeste 49 Sudoeste 0 835 -0.6 68
2020-01-17 01:00:00 3.9 9 Oeste 42 Oeste 0 835.3 -0.5 69
2020-01-17 00:00:00 3.7 10 Oeste 40 Oeste 0 835.5 -0.3 73
2020-01-16 23:00:00 1.9 5 Este 24 Sudoeste 0 835.6 -0.1 77
2020-01-16 22:00:00 0.3 5 Sudeste 12 Sudeste 0 835.8 0.4 82
2020-01-16 21:00:00 0.5 4 Este 12 Sudeste 0 835.8 0.4 77
2020-01-16 20:00:00 1 5 Este 12 Sudeste 0 835.7 0.5 76
2020-01-16 19:00:00 2.2 7 Este 12 Este 0 835.4 0.4 62
2020-01-16 18:00:00 1.5 6 Sudeste 13 Sudeste 0 835.4 0.5 59
2020-01-16 17:00:00 2.2 6 Sudeste 11 Sudeste 0 835.2 -0.1 54
2020-01-16 16:00:00 7.1 4 Este 14 Sudeste 0 835 -1 41
2020-01-16 15:00:00 6.3 5 Sudeste 12 Sudeste 0 834.9 -1.6 40
2020-01-16 14:00:00 6.2 4 Sudeste 13 Sudeste 0 835.3 -1.7 42
2020-01-16 13:00:00 3.4 4 Sur 8 Sudeste 0 836 -0.8 52
2020-01-16 12:00:00 4.1 4 Sudeste 9 Sudeste 0 836.5 -0.1 49
2020-01-16 11:00:00 1.9 5 Sudeste 11 Sudeste 0 837 0.6 56
2020-01-16 10:00:00 -0.5 6 Sudeste 12 Este 0 836.8 0.6 63
2020-01-16 09:00:00 -0.7 7 Sudeste 13 Sudeste 0 836.6 0.4 63
2020-01-16 08:00:00 -0.7 8 Sudeste 12 Sudeste 0 836.4 0.2 63
2020-01-16 07:00:00 -0.2 5 Este 10 Este 0 836.2 -0.1 63
2020-01-16 06:00:00 1 5 Este 10 Sudeste 0 836.2 -0.1 59
2020-01-16 05:00:00 0.9 5 Sudeste 23 Sudeste 0 836.2 -0.1 60
2020-01-16 04:00:00 3.9 13 Sudeste 27 Sur 0 836.3 0 54
2020-01-16 03:00:00 3.9 21 Sudeste 27 Sudeste 0 836.3 -0.1 54
2020-01-16 02:00:00 2.6 4 Este 20 Este 0 836.3 0 55
2020-01-16 01:00:00 1.4 3 Sudeste 11 Sudeste 0 836.3 0.4 52
2020-01-16 00:00:00 0.8 5 Sudeste 11 Sudeste 0 836.4 0.9 48
2020-01-15 23:00:00 0.5 7 Sudeste 11 Sudeste 0 836.3 1.1 52
2020-01-15 22:00:00 2.9 5 Oeste 22 Sudeste 0 835.9 1.1 39
2020-01-15 21:00:00 3.6 5 Norte 22 Sudeste 0 835.5 1.3 36
2020-01-15 20:00:00 1.1 5 Sudeste 11 Sudeste 0 835.2 1.7 47
2020-01-15 19:00:00 0.5 7 Sudeste 10 Sudeste 0 834.8 1.9 52
2020-01-15 18:00:00 1.2 5 Sudeste 10 Sur 0 834.2 1.6 48
2020-01-15 17:00:00 2.1 5 Sudeste 10 Sudeste 0 833.5 1.1 50
2020-01-15 16:00:00 5.3 3 Sudeste 13 Sudeste 0 832.9 0.2 42
2020-01-15 15:00:00 4.8 4 Sudeste 14 Este 0 832.6 -0.1 40
2020-01-15 14:00:00 5.7 3 Este 10 Norte 0 832.4 0 35
2020-01-15 13:00:00 4.6 5 Norte 12 Sudeste 0 832.7 0.9 38
2020-01-15 12:00:00 3.8 3 Nordeste 14 Sudeste 0 832.7 1.2 36
2020-01-15 11:00:00 3 3 Nordeste 10 Este 0 832.4 1.1 40
2020-01-15 10:00:00 1.3 7 Sudeste 13 Sudeste 0 831.8 0.8 42
2020-01-15 09:00:00 0.2 8 Sudeste 13 Sudeste 0 831.5 0.8 45
2020-01-15 08:00:00 0.6 8 Este 14 Sudeste 0 831.3 0.6 43
2020-01-15 07:00:00 0.3 4 Este 14 Sudeste 0 831 0 44
2020-01-15 06:00:00 0.5 6 Sudeste 13 Este 0 830.7 -0.4 36
2020-01-15 05:00:00 0.4 6 Sudeste 13 Sudeste 0 830.7 -0.3 33
2020-01-15 04:00:00 -0.4 6 Sudeste 10 Sudeste 0 831 -0.4 35
2020-01-15 03:00:00 0 4 Sudeste 10 Sudeste 0 831.1 -0.4 32
2020-01-15 02:00:00 0.2 5 Sudeste 10 Este 0 831 -0.5 33
2020-01-15 01:00:00 -0.1 5 Sudeste 13 Sudeste 0 831.4 0 33
2020-01-15 00:00:00 0.6 5 Sudeste 13 Sudeste 0 831.5 -0.1 33
2020-01-14 23:00:00 0.4 6 Sudeste 14 Sudeste 0 831.5 -0.1 33
2020-01-14 22:00:00 1.5 8 Sudeste 14 Sudeste 0 831.4 0.1 30
2020-01-14 21:00:00 1.8 6 Sudeste 14 Sudeste 0 831.6 0.6 32
2020-01-14 20:00:00 2.5 6 Sudeste 13 Sudeste 0 831.6 1 32
2020-01-14 19:00:00 2.5 5 Este 12 Sudeste 0 831.3 0.9 33
2020-01-14 18:00:00 2.6 3 Sudeste 11 Sur 0 831 0.7 32
2020-01-14 17:00:00 4.9 5 Sudeste 16 Sudeste 0 830.6 0.2 30
2020-01-14 16:00:00 8.8 4 Este 15 Sudeste 0 830.4 -0.3 25
2020-01-14 15:00:00 8.1 4 Sudeste 9 Este 0 830.3 -0.9 27
2020-01-14 14:00:00 7.3 4 Sudeste 8 Sudeste 0 830.4 -0.9 28
2020-01-14 13:00:00 6.4 4 Sudeste 11 Sudeste 0 830.7 -0.1 26
2020-01-14 12:00:00 5.2 4 Sudeste 10 Sudeste 0 831.2 0.9 28
2020-01-14 11:00:00 4.5 3 Sudeste 12 Este 0 831.3 1.1 28
2020-01-14 10:00:00 1.2 5 Sudeste 12 Sudeste 0 830.8 0.8 31
2020-01-14 09:00:00 -0.1 6 Sudeste 13 Sudeste 0 830.3 0.3 37
2020-01-14 08:00:00 1.1 5 Sudeste 10 Sudeste 0 830.2 0.5 35
2020-01-14 07:00:00 1.4 5 Sudeste 14 Sudeste 0 830 0.1 33
2020-01-14 06:00:00 0 8 Sudeste 15 Sudeste 0 830 -0.1 48
2020-01-14 05:00:00 -0.2 8 Sudeste 15 Sudeste 0 829.7 -0.5 41
2020-01-14 04:00:00 0.8 6 Este 15 Este 0 829.9 -0.8 38
2020-01-14 03:00:00 0.5 9 Sudeste 17 Sudeste 0 830.1 -0.7 37
2020-01-14 02:00:00 -0.8 6 Sudeste 15 Sudeste 0 830.2 -0.4 47
2020-01-14 01:00:00 -1.2 10 Sudeste 16 Sudeste 0 830.7 0 56
2020-01-14 00:00:00 0.6 6 Nordeste 17 Sudeste 0 830.8 -0.1 37
2020-01-13 23:00:00 0.5 6 Este 13 Sudeste 0 830.6 -0.5 36
2020-01-13 22:00:00 0.1 6 Sudeste 13 Sudeste 0 830.7 -0.6 41
2020-01-13 21:00:00 0.3 6 Este 12 Sudeste 0 830.9 -0.6 40
2020-01-13 20:00:00 0.8 6 Este 12 Sudeste 0 831.1 -0.1 40
2020-01-13 19:00:00 2 4 Este 13 Sudeste 0 831.3 0 38
2020-01-13 18:00:00 3 4 Nordeste 12 Sudeste 0 831.5 0 37
2020-01-13 17:00:00 4.7 4 Este 10 Este 0 831.2 -0.6 29
2020-01-13 16:00:00 5.6 3 Este 10 Sudeste 0 831.3 -1.5 31
2020-01-13 15:00:00 8.7 3 Norte 15 Nordeste 0 831.5 -2.1 24
2020-01-13 14:00:00 8.5 4 Este 9 Sudeste 0 831.8 -2.1 26
2020-01-13 13:00:00 7 2 Sur 7 Sudoeste 0 832.8 -1 27
2020-01-13 12:00:00 7.3 3 Sudeste 10 Sur 0 833.6 0 21
2020-01-13 11:00:00 5.5 4 Sudeste 10 Este 0 833.9 -0.1 23
2020-01-13 10:00:00 2.9 6 Este 14 Sudeste 0 833.8 -0.3 20
2020-01-13 09:00:00 2.2 4 Este 12 Sudeste 0 833.6 -0.6 22
2020-01-13 08:00:00 0.7 5 Sudeste 12 Sudeste 0 834 -0.5 29
2020-01-13 07:00:00 0.8 7 Sudeste 13 Sudeste 0 834.1 -1.1 30
2020-01-13 06:00:00 -0.1 6 Sudeste 12 Sudeste 0 834.2 -1.2 39
2020-01-13 05:00:00 -0.2 6 Sudeste 13 Sudeste 0 834.5 -1.3 52
2020-01-13 04:00:00 -1.2 6 Sudeste 13 Sudeste 0 835.2 -1.1 62
2020-01-13 03:00:00 -1.6 8 Sudeste 12 Sudeste 0 835.4 -1.6 66
2020-01-13 02:00:00 -1.6 7 Sudeste 12 Sudeste 0 835.8 -1.5 69
2020-01-13 01:00:00 -1.6 7 Sudeste 12 Sudeste 0 836.3 -1.1 70
2020-01-13 00:00:00 -1.2 5 Este 12 Sudeste 0 837 -0.5 66
2020-01-12 23:00:00 -1 6 Sudeste 12 Sudeste 0 837.3 -0.4 64
2020-01-12 22:00:00 -0.6 9 Sudeste 13 Sudeste 0 837.4 -0.2 51
2020-01-12 21:00:00 0.2 6 Sudeste 10 Sudeste 0 837.5 0.2 34
2020-01-12 20:00:00 0.9 3 Sudeste 10 Sur 0 837.7 0.8 31
2020-01-12 19:00:00 1.4 9 Sur 14 Sur 0 837.6 0.9 28
2020-01-12 18:00:00 1.6 7 Sur 14 Sudoeste 0 837.3 0.7 29
2020-01-12 17:00:00 3 7 Sur 10 Sur 0 836.9 -0.1 27
2020-01-12 16:00:00 7.5 4 Sudeste 8 Sur 0 836.7 -0.9 26
2020-01-12 15:00:00 9.8 4 Este 15 Norte 0 836.6 -1.7 15
2020-01-12 14:00:00 9.7 4 Sudeste 25 Este 0 837 -1.6 12
2020-01-12 13:00:00 7.3 13 Sur 26 Sudeste 0 837.6 -0.9 15
2020-01-12 12:00:00 6.9 9 Oeste 16 Sur 0 838.3 0.3 8
2020-01-12 11:00:00 4.2 6 Sur 15 Sudeste 0 838.6 0.9 20
2020-01-12 10:00:00 1.1 8 Sur 19 Sudoeste 0 838.5 1.2 21
2020-01-12 09:00:00 -0.1 8 Sur 15 Sur 0 838 0.9 24
2020-01-12 08:00:00 0 7 Sur 15 Sudoeste 0 837.7 0.6 29
2020-01-12 07:00:00 0.5 6 Sur 26 Sur 0 837.3 0.1 25
2020-01-12 06:00:00 1.7 9 Sudeste 19 Sur 0.2 837.1 -0.4 32
2020-01-12 05:00:00 0.4 8 Sudoeste 21 Sur 0 837.1 -0.3 41
2020-01-12 04:00:00 0 6 Sur 18 Sudoeste 0 837.2 -0.6 28
2020-01-12 03:00:00 1.1 7 Sur 19 Sur 0 837.5 -0.5 31
2020-01-12 02:00:00 -0.5 9 Sur 18 Sudoeste 0 837.4 -0.6 42
2020-01-12 01:00:00 -0.5 9 Sur 17 Sudoeste 0 837.8 -0.3 41
2020-01-12 00:00:00 0.3 10 Sur 23 Sur 0 838 -0.2 29
2020-01-11 23:00:00 -0.3 11 Sur 22 Sur 0 838 -0.3 30
2020-01-11 22:00:00 -0.1 7 Sur 13 Sur 0 838.1 0.1 27
2020-01-11 21:00:00 -0.3 3 Sudeste 14 Sur 0 838.2 0.7 29
2020-01-11 20:00:00 1.7 5 Nordeste 27 Norte 0 838.3 1 22
2020-01-11 19:00:00 2.2 10 Norte 27 Noroeste 0 838 0.8 25
2020-01-11 18:00:00 0.6 8 Sur 18 Sudoeste 0 837.5 0.6 43
2020-01-11 17:00:00 0.4 6 Sur 18 Este 0 837.3 0.2 37
2020-01-11 16:00:00 4.9 4 Sudeste 21 Oeste 0 837.2 -0.5 30
2020-01-11 15:00:00 6 9 Oeste 23 Noroeste 0 836.9 -1.4 23
2020-01-11 14:00:00 5.5 10 Oeste 25 Oeste 0 837.1 -1.6 24
2020-01-11 13:00:00 2.8 5 Sur 18 Sudoeste 0 837.7 -0.2 34
2020-01-11 12:00:00 3.1 8 Sudoeste 18 Sudoeste 0 838.3 0.4 31
2020-01-11 11:00:00 2.7 10 Sudoeste 27 Sudoeste 0 838.7 1 23
2020-01-11 10:00:00 0.4 13 Sudoeste 28 Sudoeste 0 837.9 0.4 25
2020-01-11 09:00:00 -1.1 8 Sudoeste 23 Sudeste 0 837.9 0.7 35
2020-01-11 08:00:00 -2.1 8 Sudoeste 17 Sur 0 837.7 0.6 40
2020-01-11 07:00:00 -2.5 10 Sudoeste 19 Sudoeste 0.2 837.5 0 43
2020-01-11 06:00:00 -2.2 8 Sudoeste 19 Sudoeste 0 837.2 -0.1 54
2020-01-11 05:00:00 -2 5 Sudeste 23 Sudoeste 0 837.1 0 61
2020-01-11 04:00:00 -1.8 10 Sudoeste 20 Este 0 837.5 0.1 47
2020-01-11 03:00:00 -1.7 8 Sudeste 21 Sur 0 837.3 -0.4 60
2020-01-11 02:00:00 -2.3 10 Sur 19 Sur 0 837.1 -0.4 45
2020-01-11 01:00:00 -2.6 7 Sur 13 Sudoeste 0.2 837.4 0.1 70
2020-01-11 00:00:00 -2.5 4 Sudeste 12 Sur 0 837.7 0.8 65
2020-01-10 23:00:00 -3 6 Sur 10 Sur 0 837.5 1.4 73
2020-01-10 22:00:00 -2.3 4 Sudeste 11 Sur 0 837.3 1.7 74
2020-01-10 21:00:00 -2.7 6 Sur 13 Sur 0 836.9 1.8 80
2020-01-10 20:00:00 -2.3 4 Sudoeste 12 Sudoeste 0 836.1 1.1 76
2020-01-10 19:00:00 -0.9 6 Oeste 18 Sudoeste 0 835.6 0.7 71
2020-01-10 18:00:00 -0.6 5 Sudoeste 19 Oeste 0 835.1 0.7 69
2020-01-10 17:00:00 0.9 8 Noroeste 23 Noroeste 0 835 0.8 64
2020-01-10 16:00:00 3 11 Noroeste 29 Noroeste 0 834.9 0.5 54
2020-01-10 15:00:00 3.2 10 Noroeste 30 Noroeste 0 834.4 -0.3 55
2020-01-10 14:00:00 2.7 11 Noroeste 26 Oeste 0 834.2 -0.3 55
2020-01-10 13:00:00 1.8 12 Noroeste 25 Noroeste 0 834.4 0.6 62
2020-01-10 12:00:00 1.7 11 Oeste 26 Noroeste 0 834.7 1.3 63
2020-01-10 11:00:00 0.8 4 Oeste 10 Oeste 0 834.5 1.3 69
2020-01-10 10:00:00 0 4 Sudoeste 11 Sur 0 833.8 1 75
2020-01-10 09:00:00 -0.7 4 Sur 11 Sudeste 0 833.4 1 85
2020-01-10 08:00:00 -0.4 4 Sur 10 Sur 0.2 833.2 0.9 89
2020-01-10 07:00:00 -0.1 6 Sudoeste 17 Sudeste 0.4 832.8 0.4 90
2020-01-10 06:00:00 0 10 Sudeste 15 Sudeste 0.2 832.4 0.1 91
2020-01-10 05:00:00 0.3 6 Este 14 Nordeste 0.6 832.3 -0.3 88
2020-01-10 04:00:00 1 3 Sudeste 8 Noroeste 0 832.4 -0.3 81
2020-01-10 03:00:00 1.6 4 Este 6 Nordeste 0 832.3 -0.5 74
2020-01-10 02:00:00 1.8 3 Sudoeste 9 Sudoeste 0 832.6 -0.5 64
2020-01-10 01:00:00 1.7 4 Sudeste 8 Sur 0 832.7 -0.7 63
2020-01-10 00:00:00 1.6 3 Sudeste 8 Este 0 832.8 -0.9 63
2020-01-09 23:00:00 0.2 4 Sudeste 9 Este 0 833.1 -0.7 70
2020-01-09 22:00:00 0.4 4 Este 14 Sudeste 0 833.4 -0.4 62
2020-01-09 21:00:00 1.8 6 Sudeste 15 Sudeste 0 833.7 0.4 55
2020-01-09 20:00:00 2.9 11 Sudeste 19 Sudeste 0 833.8 0.2 51
2020-01-09 19:00:00 3.2 8 Sudeste 15 Sudeste 0 833.8 -0.2 50
2020-01-09 18:00:00 3.1 8 Sudeste 14 Sudeste 0 833.3 -0.8 54
2020-01-09 17:00:00 2.8 8 Este 14 Sudeste 0 833.6 -0.9 61
2020-01-09 16:00:00 6.1 5 Sudeste 11 Sudeste 0 834 -1.4 57
2020-01-09 15:00:00 6.7 4 Sudeste 10 Noroeste 0 834.1 -2 52
2020-01-09 14:00:00 6.5 7 Sudeste 13 Sudeste 0 834.5 -2 55
2020-01-09 13:00:00 4.5 4 Sudeste 9 Sudeste 0 835.4 -1 62
2020-01-09 12:00:00 4.6 5 Sudeste 9 Este 0 836.1 -0.1 61
2020-01-09 11:00:00 3.6 4 Este 12 Sudeste 0 836.5 0.3 66
2020-01-09 10:00:00 0.5 6 Sudeste 11 Sudeste 0 836.4 -0.1 74
2020-01-09 09:00:00 -0.1 5 Este 11 Sudeste 0 836.2 -0.4 78
2020-01-09 08:00:00 0.1 6 Sudeste 12 Sudeste 0 836.2 -0.8 77
2020-01-09 07:00:00 -0.3 5 Sudeste 11 Sudeste 0 836.5 -1.1 82
2020-01-09 06:00:00 0.2 6 Sudeste 13 Sudeste 0 836.6 -1.4 82
2020-01-09 05:00:00 0.4 6 Sudeste 11 Sudeste 0 837 -1 79
2020-01-09 04:00:00 0.7 5 Sudeste 10 Sudeste 0 837.6 -0.9 77
2020-01-09 03:00:00 0.7 5 Sudeste 11 Sudeste 0 838 -1 79
2020-01-09 02:00:00 0.9 6 Sudeste 10 Sudeste 0 838 -1.2 77
2020-01-09 01:00:00 0.7 6 Sudeste 9 Sudeste 0 838.5 -1 78
2020-01-09 00:00:00 0.9 5 Sudeste 9 Sudeste 0 839 -0.6 79
2020-01-08 23:00:00 1.2 5 Sudeste 10 Sudeste 0 839.2 -0.3 77
2020-01-08 22:00:00 1.8 5 Este 9 Sudeste 0 839.5 0 80
2020-01-08 21:00:00 2.3 5 Este 9 Sudeste 0 839.6 0.1 78
2020-01-08 20:00:00 3 6 Sudeste 11 Sudeste 0 839.5 0.2 78
2020-01-08 19:00:00 3.8 5 Sudeste 8 Nordeste 0 839.5 0.4 76
2020-01-08 18:00:00 4.6 4 Sudeste 9 Sudeste 0 839.5 0.5 73
2020-01-08 17:00:00 7.3 3 Nordeste 15 Este 0 839.3 0.1 63
2020-01-08 16:00:00 9.3 4 Noroeste 8 Noroeste 0 839.1 -0.5 52
2020-01-08 15:00:00 10.4 7 Noroeste 21 Noroeste 0 839 -1.3 48
2020-01-08 14:00:00 10.4 9 Norte 20 Norte 0 839.2 -1.6 52
2020-01-08 13:00:00 9.3 5 Noroeste 24 Oeste 0 839.6 -1 56
2020-01-08 12:00:00 8.7 7 Noroeste 22 Oeste 0 840.3 0.4 53
2020-01-08 11:00:00 8.1 6 Noroeste 16 Norte 0 840.8 1.5 47
2020-01-08 10:00:00 6.5 4 Norte 16 Norte 0 840.6 1.4 48
2020-01-08 09:00:00 5.1 4 Norte 15 Sudoeste 0 839.9 0.8 46
2020-01-08 08:00:00 3.7 5 Sur 12 Sur 0 839.3 0.2 47
2020-01-08 07:00:00 4.2 5 Sudeste 11 Sudeste 0 839.2 0 40
2020-01-08 06:00:00 4 4 Sudeste 12 Sur 0 839.1 -0.3 39
2020-01-08 05:00:00 4.3 6 Sudeste 22 Sudoeste 0 839.1 0.3 40
2020-01-08 04:00:00 3.4 6 Sudeste 15 Sur 0 839.2 0.2 50
2020-01-08 03:00:00 3.2 9 Sur 14 Sur 0 839.4 0.3 53
2020-01-08 02:00:00 3.4 5 Sur 12 Sudeste 0 838.8 -0.7 38
2020-01-08 01:00:00 4 4 Este 12 Sudeste 0 839 -0.7 49
2020-01-08 00:00:00 3.9 7 Sudeste 11 Sudeste 0 839.1 -0.5 52
2020-01-07 23:00:00 3.9 7 Sudeste 14 Sur 0 839.5 -0.1 60
2020-01-07 22:00:00 5.5 7 Sur 13 Sur 0 839.7 0.4 56
2020-01-07 21:00:00 4.9 7 Sur 15 Sudoeste 0 839.6 0.6 55
2020-01-07 20:00:00 3.6 7 Sur 12 Sudoeste 0 839.6 1 57
2020-01-07 19:00:00 4.2 5 Sur 12 Sudoeste 0 839.3 0.8 50
2020-01-07 18:00:00 5.4 6 Sudoeste 14 Sudoeste 0 839 0.6 44
2020-01-07 17:00:00 7.7 4 Sur 18 Sudoeste 0 838.6 -0.2 38
2020-01-07 16:00:00 11.5 5 Noroeste 14 Noroeste 0 838.5 -0.8 30
2020-01-07 15:00:00 11.6 3 Oeste 16 Noroeste 0 838.4 -1.5 24
2020-01-07 14:00:00 11.3 8 Oeste 17 Oeste 0 838.8 -1.5 19
2020-01-07 13:00:00 9.7 8 Oeste 15 Noroeste 0 839.3 -1 27
2020-01-07 12:00:00 7.8 6 Sur 10 Sur 0 839.9 0.1 29
2020-01-07 11:00:00 6.3 4 Sudeste 9 Sudoeste 0 840.3 1 32
2020-01-07 10:00:00 4.5 3 Sudeste 8 Sudeste 0 840.3 1.2 32
2020-01-07 09:00:00 3.3 7 Sur 16 Sur 0 839.8 1.1 33
2020-01-07 08:00:00 2.4 8 Sur 10 Sur 0 839.3 0.4 35
2020-01-07 07:00:00 2.6 6 Sudeste 11 Sur 0 839.1 0.2 37
2020-01-07 06:00:00 4.4 8 Sur 15 Sudoeste 0 838.7 -0.4 33
2020-01-07 05:00:00 2.7 8 Sudeste 12 Sudeste 0 838.9 -0.2 36
2020-01-07 04:00:00 2.3 5 Sudeste 12 Sudeste 0 838.9 -0.2 36
2020-01-07 03:00:00 2.7 6 Sudeste 10 Este 0 839.1 0.1 39
2020-01-07 02:00:00 3 5 Sudeste 12 Este 0 839.1 0.1 41
2020-01-07 01:00:00 3.7 6 Sudeste 10 Sudeste 0 839.1 0.2 41
2020-01-07 00:00:00 3 7 Sur 12 Sur 0 839 0.5 47
2020-01-06 23:00:00 3 5 Sudeste 10 Sudeste 0 839 0.6 49
2020-01-06 22:00:00 2.8 5 Sudeste 10 Sudeste 0 838.9 0.9 51
2020-01-06 21:00:00 3.3 8 Sudeste 12 Sudeste 0 838.5 1 49
2020-01-06 20:00:00 3.4 5 Sudeste 11 Sudeste 0 838.4 1.1 49
2020-01-06 19:00:00 3.4 6 Sudeste 11 Sudeste 0 838 1.1 48
2020-01-06 18:00:00 3.7 6 Sudeste 11 Este 0 837.5 0.7 47
2020-01-06 17:00:00 4.3 6 Sudeste 10 Este 0 837.3 0.4 46
2020-01-06 16:00:00 7.9 5 Sudeste 8 Sur 0 836.9 -0.7 40
2020-01-06 15:00:00 8.4 5 Sudeste 9 Sudeste 0 836.8 -1.2 39
2020-01-06 14:00:00 7.4 5 Sudeste 8 Sudeste 0 836.9 -1.5 40
2020-01-06 13:00:00 5.4 4 Sudeste 8 Sur 0 837.6 -0.4 45
2020-01-06 12:00:00 6.3 5 Sudeste 9 Este 0 838 0.2 42
2020-01-06 11:00:00 5.1 5 Sudeste 11 Sudeste 0 838.4 1 44
2020-01-06 10:00:00 2.7 5 Sudeste 11 Este 0 838 0.5 46